Terminal Aerodrome Forecast
Issued by NWS

Home | Current Version | Previous Version | Text Only | Print | Product List | Glossary On
Versions: 1 2 3 4 5 6 7 8 9 10 11 12 13 14 15
000
FTUS42 KGSP 290542 CCA
TAFAND
TAF COR
KAND 290542Z 2906/3006 00000KT P6SM SCT080
     FM291000 00000KT P6SM SCT029
      TEMPO 2910/2913 00000KT 4SM BR
     FM291500 23003KT P6SM BKN024
     FM291900 22005KT P6SM BKN040 PROB30 2919/2923 4SM TSRA
      BKN030CB=

USA.gov is the U.S. government's official web portal to all federal, state and local government web resources and services.